This is the latest recevied weather packets stored in our database for station/object KB9PVH-3. If no packets are shown the sender has not sent any weather packets the latest 10 day(s).
| Time | Temp. | Humidity | Pressure | Rain* | Wind** | Luminosity | Snow |
|---|---|---|---|---|---|---|---|
| 1777712399 | 0° C | 89% | 1020.6 hPa | 0 mm | - | - | - |
| 1777711378 | 0° C | 89% | 1020.7 hPa | 0 mm | - | - | - |
| 1777710328 | -0.56° C | 89% | 1020.8 hPa | 0 mm | - | - | - |
| 1777709278 | -0.56° C | 85% | 1020.8 hPa | 0 mm | - | - | - |
| 1777708230 | 0° C | 83% | 1020.7 hPa | 0 mm | - | - | - |
| 1777707178 | 0° C | 90% | 1020.8 hPa | 0 mm | - | - | - |
| 1777706128 | 0° C | 85% | 1020.7 hPa | 0 mm | - | - | - |
| 1777705078 | 0° C | 85% | 1020.8 hPa | 0 mm | - | - | - |
| 1777704028 | 0.56° C | 79% | 1020.8 hPa | 0 mm | - | - | - |
| 1777702978 | 0° C | 85% | 1021 hPa | 0 mm | - | - | - |
| 1777701929 | 0.56° C | 81% | 1020.8 hPa | 0 mm | - | - | - |
| 1777700878 | 1.11° C | 73% | 1020.8 hPa | 0 mm | - | - | - |
| 1777698778 | 1.11° C | 76% | 1020.8 hPa | 0 mm | - | - | - |
| 1777697728 | 1.67° C | 77% | 1020.7 hPa | 0 mm | - | - | - |
| 1777696678 | 1.67° C | 82% | 1020.8 hPa | 0 mm | - | - | - |
| 1777695628 | 1.67° C | 76% | 1020.8 hPa | 0 mm | - | - | - |
| 1777694578 | 2.22° C | 75% | 1020.7 hPa | 0 mm | - | - | - |
| 1777693528 | 2.22° C | 70% | 1020.8 hPa | 0 mm | - | - | - |
| 1777691428 | 2.78° C | 68% | 1020.8 hPa | 0 mm | - | - | - |
| 1777690378 | 3.33° C | 66% | 1020.6 hPa | 0 mm | - | - | - |
| 1777689329 | 3.33° C | 60% | 1020.6 hPa | 0 mm | - | - | - |
| 1777688278 | 3.33° C | 59% | 1020.4 hPa | 0 mm | - | - | - |
| 1777687230 | 3.89° C | 57% | 1020.6 hPa | 0 mm | - | - | - |
| 1777686182 | 4.44° C | 56% | 1020.4 hPa | 0 mm | - | - | - |
| 1777685129 | 5.56° C | 53% | 1020 hPa | 0 mm | - | - | - |
* Rain latest hour (hover to see other rain measurements)
** Current wind speed in m/s (hover to see current wind gust speed)